Time;durP1;ratioP1;P1;durP2;ratioP2;P2;SDS_P1;SDS_P2;PMS_P1;PMS_P2;Temp;Humidity;BMP_temperature;BMP_pressure;BME280_temperature;BME280_humidity;BME280_pressure;Samples;Min_cycle;Max_cycle;Signal;HPM_P1;HPM_P2
2023/06/20 00:00:07;;;;;;;9.38;5.03;;;;;;;19.70;60.50;101458.94;7400392;19;20277;-77
2023/06/20 00:02:36;;;;;;;9.20;5.15;;;;;;;19.70;60.83;101460.81;7396365;19;19954;-77
2023/06/20 00:05:07;;;;;;;8.20;5.38;;;;;;;19.69;61.13;101470.91;7399065;19;20332;-76
2023/06/20 00:07:36;;;;;;;8.10;5.10;;;;;;;19.67;60.78;101473.06;7397256;19;20009;-77
2023/06/20 00:10:05;;;;;;;8.88;5.55;;;;;;;19.66;60.95;101465.91;7403125;19;19978;-78
2023/06/20 00:12:34;;;;;;;7.85;4.75;;;;;;;19.66;60.89;101465.06;7406568;19;19922;-77
2023/06/20 00:15:04;;;;;;;9.20;5.15;;;;;;;19.61;60.91;101457.53;7406812;19;19922;-77
2023/06/20 00:17:32;;;;;;;8.95;5.80;;;;;;;19.59;61.18;101464.28;7403415;19;19951;-77
2023/06/20 00:20:05;;;;;;;8.05;5.55;;;;;;;19.55;61.53;101469.34;7406265;19;19986;-78
2023/06/20 00:22:37;;;;;;;7.47;5.03;;;;;;;19.53;61.79;101465.16;7405704;19;19954;-77
2023/06/20 00:25:06;;;;;;;10.00;5.55;;;;;;;19.50;61.60;101465.63;7405566;19;19915;-77
2023/06/20 00:27:35;;;;;;;10.82;5.38;;;;;;;19.45;62.39;101466.28;7401543;19;19970;-78
2023/06/20 00:30:03;;;;;;;9.55;5.78;;;;;;;19.42;62.41;101466.66;7403787;19;19918;-77
2023/06/20 00:32:32;;;;;;;8.20;5.45;;;;;;;19.38;62.89;101469.00;7405751;19;19974;-78
2023/06/20 00:35:01;;;;;;;10.07;6.15;;;;;;;19.34;63.22;101461.47;7405215;19;20274;-78
2023/06/20 00:37:29;;;;;;;8.95;6.30;;;;;;;19.33;63.15;101457.06;7404432;19;19986;-76
2023/06/20 00:40:01;;;;;;;12.73;7.00;;;;;;;19.32;63.31;101456.25;7405914;19;19967;-78
2023/06/20 00:42:29;;;;;;;12.18;6.50;;;;;;;19.31;63.92;101454.56;7404612;19;19926;-77
2023/06/20 00:44:58;;;;;;;13.23;6.32;;;;;;;19.30;63.83;101454.78;7405088;19;19950;-76
2023/06/20 00:47:27;;;;;;;11.07;6.40;;;;;;;19.32;63.93;101455.41;7403743;19;19930;-78
2023/06/20 00:49:56;;;;;;;14.00;7.75;;;;;;;19.34;63.72;101456.84;7405662;19;19926;-78
2023/06/20 00:52:27;;;;;;;10.60;6.60;;;;;;;19.32;63.50;101455.41;7406220;19;19935;-77
2023/06/20 00:54:56;;;;;;;10.32;6.55;;;;;;;19.28;63.94;101456.91;7410156;19;19939;-77
2023/06/20 00:57:27;;;;;;;11.57;6.53;;;;;;;19.27;64.27;101466.16;7407758;19;19927;-78
2023/06/20 00:59:56;;;;;;;13.27;7.70;;;;;;;19.26;64.16;101467.19;7404910;19;19939;-77
2023/06/20 01:02:24;;;;;;;9.52;6.70;;;;;;;19.23;64.25;101462.19;7401170;19;19920;-77
2023/06/20 01:04:53;;;;;;;10.07;6.68;;;;;;;19.18;64.33;101462.84;7403561;19;19918;-77
2023/06/20 01:07:31;;;;;;;12.07;6.88;;;;;;;19.13;65.41;101462.66;7401770;19;19925;-77
2023/06/20 01:10:18;;;;;;;9.40;6.97;;;;;;;19.08;65.78;101456.16;7401732;19;19911;-78
2023/06/20 01:12:56;;;;;;;12.07;7.13;;;;;;;19.02;65.89;101453.28;7404455;19;19923;-78
2023/06/20 01:15:32;;;;;;;10.40;7.30;;;;;;;19.03;66.54;101454.09;7405262;19;19919;-77
2023/06/20 01:18:10;;;;;;;11.50;6.97;;;;;;;19.02;66.27;101464.19;7404684;19;19922;-77
2023/06/20 01:20:44;;;;;;;11.60;7.30;;;;;;;19.02;66.05;101455.16;7404379;19;19919;-78
2023/06/20 01:23:23;;;;;;;11.32;7.22;;;;;;;18.98;66.49;101456.66;7405984;19;20403;-78
2023/06/20 01:25:59;;;;;;;13.05;8.50;;;;;;;19.03;66.56;101454.09;7407422;19;19922;-78
2023/06/20 01:28:34;;;;;;;13.73;8.45;;;;;;;19.03;66.41;101452.19;7403493;19;19922;-77
2023/06/20 01:31:06;;;;;;;11.20;7.50;;;;;;;19.06;66.32;101455.56;7403691;19;19970;-77
2023/06/20 01:33:41;;;;;;;12.80;8.05;;;;;;;19.00;66.99;101449.91;7402199;19;19986;-77
2023/06/20 01:36:11;;;;;;;12.48;8.20;;;;;;;18.98;66.84;101448.47;7402997;19;20009;-77
2023/06/20 01:38:44;;;;;;;14.02;8.50;;;;;;;18.96;67.06;101456.88;7403143;19;20256;-77
2023/06/20 01:41:16;;;;;;;12.75;8.65;;;;;;;18.93;67.20;101451.00;7402242;19;19914;-78
2023/06/20 01:43:46;;;;;;;;;;;;;;;18.69;69.19;101449.84;7405687;19;19918;-77
2023/06/20 01:46:17;;;;;;;13.68;8.50;;;;;;;18.89;66.71;101442.41;7402007;19;19950;-77
2023/06/20 01:48:47;;;;;;;15.18;8.90;;;;;;;18.93;67.08;101435.47;7403161;19;20387;-77
2023/06/20 01:51:17;;;;;;;12.73;8.77;;;;;;;18.92;66.64;101439.25;7397327;19;19935;-78
2023/06/20 01:53:49;;;;;;;16.13;8.75;;;;;;;18.91;67.10;101439.44;7402012;19;19943;-78
2023/06/20 01:56:20;;;;;;;16.50;9.43;;;;;;;18.88;67.14;101434.44;7402330;19;19926;-76
2023/06/20 01:58:50;;;;;;;15.07;9.38;;;;;;;18.86;67.43;101439.25;7401906;19;19926;-77
2023/06/20 02:01:20;;;;;;;13.98;8.38;;;;;;;18.86;67.51;101445.56;7402067;19;19942;-76
2023/06/20 02:03:50;;;;;;;11.70;8.52;;;;;;;18.88;67.20;101440.72;7399988;19;19957;-77
2023/06/20 02:06:22;;;;;;;14.73;9.30;;;;;;;18.86;67.28;101442.00;7402534;19;19918;-78
2023/06/20 02:08:55;;;;;;;12.88;9.15;;;;;;;18.83;68.05;101443.28;7402463;19;20456;-77
2023/06/20 02:11:24;;;;;;;16.27;8.93;;;;;;;18.81;67.80;101436.38;7401379;19;19927;-77
2023/06/20 02:13:54;;;;;;;15.73;10.02;;;;;;;18.79;67.44;101441.19;7401466;19;19982;-76
2023/06/20 02:16:25;;;;;;;15.57;10.02;;;;;;;18.81;67.77;101444.56;7399904;19;19943;-77
2023/06/20 02:18:54;;;;;;;16.25;9.35;;;;;;;18.77;67.88;101448.78;7403649;19;20244;-77
2023/06/20 02:21:28;;;;;;;14.02;9.23;;;;;;;18.78;68.24;101436.78;7401838;19;20326;-77
2023/06/20 02:23:59;;;;;;;16.73;10.32;;;;;;;18.73;67.92;101431.97;7403050;19;20271;-75
2023/06/20 02:26:32;;;;;;;14.35;9.90;;;;;;;18.72;68.36;101438.50;7401730;19;19936;-78
2023/06/20 02:29:05;;;;;;;15.60;9.60;;;;;;;18.71;68.14;101438.72;7403077;19;20392;-77
2023/06/20 02:31:36;;;;;;;12.95;9.80;;;;;;;18.68;68.33;101437.22;7400825;19;20300;-77
2023/06/20 02:34:08;;;;;;;17.02;9.80;;;;;;;18.65;68.09;101432.22;7400769;19;19989;-78
2023/06/20 02:36:38;;;;;;;15.13;8.95;;;;;;;18.65;68.29;101439.56;7402039;19;19999;-77
2023/06/20 02:39:09;;;;;;;16.38;10.35;;;;;;;18.61;68.19;101439.16;7403405;19;19939;-77
2023/06/20 02:41:38;;;;;;;17.35;10.32;;;;;;;18.61;68.47;101449.25;7402361;19;20390;-77
2023/06/20 02:44:07;;;;;;;16.10;10.07;;;;;;;18.61;67.94;101444.63;7401699;19;19922;-78
2023/06/20 02:46:39;;;;;;;14.18;9.30;;;;;;;18.61;68.35;101449.25;7401724;19;19949;-77
2023/06/20 02:49:17;;;;;;;17.50;10.10;;;;;;;18.57;68.35;101449.69;7400800;19;20002;-78
2023/06/20 02:51:52;;;;;;;16.45;9.70;;;;;;;18.58;68.35;101454.09;7401017;19;19930;-78
2023/06/20 02:54:30;;;;;;;18.30;10.88;;;;;;;18.57;69.09;101459.75;7401340;19;20334;-78
2023/06/20 02:57:03;;;;;;;17.40;10.02;;;;;;;18.60;68.53;101451.13;7402773;19;19953;-78
2023/06/20 02:59:35;;;;;;;16.08;10.13;;;;;;;18.61;68.35;101458.28;7400036;19;20290;-78
2023/06/20 03:02:08;;;;;;;18.17;11.27;;;;;;;18.60;69.08;101467.50;7401403;19;19925;-77
2023/06/20 03:04:37;;;;;;;17.85;11.27;;;;;;;18.59;68.13;101455.75;7401868;19;19982;-78
2023/06/20 03:07:07;;;;;;;15.10;9.80;;;;;;;18.61;68.20;101455.53;7402373;19;19950;-78
2023/06/20 03:09:40;;;;;;;16.77;10.30;;;;;;;18.61;68.58;101461.00;7400743;19;19922;-77
2023/06/20 03:12:11;;;;;;;17.15;10.63;;;;;;;18.58;68.49;101455.97;7401103;19;19919;-78
2023/06/20 03:14:40;;;;;;;14.70;10.45;;;;;;;18.55;68.05;101457.22;7400296;19;19927;-78
2023/06/20 03:17:09;;;;;;;17.83;10.55;;;;;;;18.53;68.43;101463.97;7396339;19;19967;-77
2023/06/20 03:19:38;;;;;;;19.15;11.48;;;;;;;18.51;68.26;101461.41;7400334;19;19948;-77
2023/06/20 03:22:07;;;;;;;16.67;10.73;;;;;;;18.49;68.26;101462.69;7399064;19;19959;-78
2023/06/20 03:24:39;;;;;;;16.90;10.52;;;;;;;18.48;68.71;101466.47;7395250;19;20338;-78
2023/06/20 03:27:08;;;;;;;15.75;10.40;;;;;;;18.46;68.32;101461.25;7400045;19;19926;-77
2023/06/20 03:29:36;;;;;;;18.70;10.77;;;;;;;18.45;68.78;101458.72;7402895;19;19939;-77
2023/06/20 03:32:06;;;;;;;18.23;11.20;;;;;;;18.43;68.83;101456.19;7406060;19;19932;-77
2023/06/20 03:34:34;;;;;;;16.48;11.10;;;;;;;18.42;68.76;101445.50;7406017;19;20022;-77
2023/06/20 03:37:03;;;;;;;15.80;11.07;;;;;;;18.41;68.89;101446.56;7404490;19;19945;-78
2023/06/20 03:39:32;;;;;;;20.55;11.52;;;;;;;18.41;68.65;101441.09;7404257;19;19911;-78
2023/06/20 03:42:03;;;;;;;15.18;10.82;;;;;;;18.42;68.71;101440.88;7400100;19;19922;-77
2023/06/20 03:44:32;;;;;;;18.63;10.82;;;;;;;18.45;68.49;101439.63;7402918;19;19918;-78
2023/06/20 03:47:01;;;;;;;18.70;10.40;;;;;;;18.47;68.38;101442.94;7406740;19;19926;-77
2023/06/20 03:49:29;;;;;;;17.25;10.65;;;;;;;18.47;68.47;101442.94;7406961;19;20366;-77
2023/06/20 03:51:58;;;;;;;16.10;10.50;;;;;;;18.46;68.19;101441.31;7405906;19;19982;-77
2023/06/20 03:54:27;;;;;;;16.23;10.73;;;;;;;18.46;68.34;101444.03;7406558;19;19922;-78
2023/06/20 03:56:56;;;;;;;16.10;10.57;;;;;;;18.48;68.30;101450.09;7406347;19;19926;-78
2023/06/20 03:59:27;;;;;;;16.52;10.07;;;;;;;18.50;68.87;101446.13;7407723;19;20380;-78
2023/06/20 04:01:56;;;;;;;16.40;10.25;;;;;;;18.49;68.21;101441.69;7406807;19;19926;-78
2023/06/20 04:04:25;;;;;;;16.20;10.35;;;;;;;18.53;68.02;101448.44;7409481;19;19967;-76
2023/06/20 04:06:54;;;;;;;16.08;10.45;;;;;;;18.55;68.31;101435.41;7406379;19;19926;-77
2023/06/20 04:09:25;;;;;;;16.80;10.55;;;;;;;18.58;68.48;101434.16;7406366;19;19948;-77
2023/06/20 04:11:54;;;;;;;16.55;9.90;;;;;;;18.57;68.37;101436.03;7406117;19;19922;-77
2023/06/20 04:14:23;;;;;;;15.02;9.45;;;;;;;18.58;68.09;101434.16;7408056;19;19915;-77
2023/06/20 04:16:54;;;;;;;15.95;10.07;;;;;;;18.63;68.02;101436.22;7403327;19;19974;-77
2023/06/20 04:19:23;;;;;;;14.60;9.65;;;;;;;18.65;68.35;101440.41;7405754;19;20424;-78
2023/06/20 04:21:52;;;;;;;17.15;9.98;;;;;;;18.66;67.77;101428.44;7405205;19;19990;-78
2023/06/20 04:24:22;;;;;;;16.50;9.73;;;;;;;18.66;68.15;101428.44;7404929;19;19922;-77
2023/06/20 04:26:50;;;;;;;14.05;10.05;;;;;;;18.69;67.78;101427.16;7406680;19;19922;-78
2023/06/20 04:29:19;;;;;;;15.55;9.43;;;;;;;18.70;67.81;101415.19;7404436;19;20274;-78
2023/06/20 04:31:49;;;;;;;14.93;9.55;;;;;;;18.71;68.01;101420.44;7405943;19;20934;-78
2023/06/20 04:34:23;;;;;;;15.18;9.13;;;;;;;18.73;67.75;101423.78;7405605;19;19927;-77
2023/06/20 04:36:52;;;;;;;17.17;10.05;;;;;;;18.76;67.99;101425.25;7411409;19;19914;-78
2023/06/20 04:39:20;;;;;;;18.85;10.52;;;;;;;18.78;67.93;101423.97;7411743;19;19939;-77
2023/06/20 04:41:49;;;;;;;15.73;9.13;;;;;;;18.81;68.33;101426.25;7410104;19;19942;-78
2023/06/20 04:44:19;;;;;;;15.05;10.05;;;;;;;18.85;68.38;101424.78;7410920;19;19926;-78
2023/06/20 04:46:48;;;;;;;14.82;9.82;;;;;;;18.88;67.95;101420.78;7410203;19;19918;-77
2023/06/20 04:49:21;;;;;;;15.65;9.65;;;;;;;18.91;68.12;101426.63;7406820;19;19923;-78
2023/06/20 04:51:49;;;;;;;18.20;9.48;;;;;;;18.96;67.99;101426.81;7411170;19;20280;-79
2023/06/20 04:54:19;;;;;;;16.25;8.85;;;;;;;18.98;67.90;101421.97;7411861;19;20304;-78
2023/06/20 04:56:48;;;;;;;15.07;8.80;;;;;;;19.03;67.71;101426.78;7411421;19;19936;-79
2023/06/20 04:59:17;;;;;;;15.88;9.48;;;;;;;19.06;67.68;101430.97;7412808;19;19915;-77
2023/06/20 05:01:50;;;;;;;13.05;9.05;;;;;;;19.11;67.70;101428.44;7414956;19;19943;-78
2023/06/20 05:04:22;;;;;;;14.00;8.23;;;;;;;19.16;67.35;101425.84;7411292;19;19922;-78
2023/06/20 05:06:51;;;;;;;;;;;;;;;19.02;68.31;101425.97;7412028;19;19931;-78
2023/06/20 05:09:19;;;;;;;18.88;8.93;;;;;;;19.24;67.92;101429.16;7408617;19;19938;-78
2023/06/20 05:11:48;;;;;;;12.98;8.90;;;;;;;19.33;67.13;101432.47;7410228;19;19926;-78
2023/06/20 05:14:17;;;;;;;14.20;8.50;;;;;;;19.40;67.44;101427.81;7407909;19;19952;-78
2023/06/20 05:16:45;;;;;;;12.85;9.02;;;;;;;19.45;66.77;101434.31;7408023;19;19918;-77
2023/06/20 05:19:14;;;;;;;12.68;8.30;;;;;;;19.50;66.71;101432.81;7408570;19;19926;-77
2023/06/20 05:21:46;;;;;;;13.90;9.18;;;;;;;19.55;66.52;101431.06;7407511;19;19926;-78
2023/06/20 05:24:14;;;;;;;13.70;8.75;;;;;;;19.58;66.13;101433.38;7410751;19;19974;-77
2023/06/20 05:26:44;;;;;;;13.35;8.00;;;;;;;19.64;66.47;101435.22;7408261;19;20347;-78
2023/06/20 05:29:13;;;;;;;12.50;7.45;;;;;;;19.70;66.05;101436.22;7407180;19;19915;-72
2023/06/20 05:31:42;;;;;;;13.40;8.25;;;;;;;19.85;65.70;101429.34;7403004;19;20296;-74
2023/06/20 05:34:11;;;;;;;18.10;9.00;;;;;;;19.99;65.15;101427.31;7405331;19;19919;-74
2023/06/20 05:36:40;;;;;;;14.30;6.05;;;;;;;20.09;64.74;101426.81;7405937;19;19930;-73
2023/06/20 05:39:11;;;;;;;13.02;8.30;;;;;;;20.17;64.02;101429.25;7405712;19;19926;-74
2023/06/20 05:41:41;;;;;;;11.80;8.02;;;;;;;20.23;63.91;101433.81;7406012;19;19923;-73
2023/06/20 05:44:10;;;;;;;13.88;7.90;;;;;;;20.36;63.89;101426.31;7405148;19;20312;-74
2023/06/20 05:46:39;;;;;;;14.70;8.93;;;;;;;20.46;63.43;101422.22;7406149;19;19943;-75
2023/06/20 05:49:10;;;;;;;11.60;7.70;;;;;;;20.50;63.28;101424.25;7404635;19;19917;-73
2023/06/20 05:51:40;;;;;;;11.77;7.53;;;;;;;20.54;63.47;101414.53;7403211;19;19914;-74
2023/06/20 05:54:11;;;;;;;16.52;8.82;;;;;;;20.61;63.06;101412.56;7406999;19;20010;-74
2023/06/20 05:56:40;;;;;;;13.05;7.38;;;;;;;20.70;62.43;101416.66;7405939;19;19918;-74
2023/06/20 05:59:09;;;;;;;12.07;7.53;;;;;;;20.79;62.35;101415.28;7406407;19;19926;-74
2023/06/20 06:01:40;;;;;;;13.00;7.55;;;;;;;20.86;62.40;101412.44;7405094;19;20277;-73
2023/06/20 06:04:08;;;;;;;12.07;7.78;;;;;;;20.92;62.17;101410.69;7404027;19;19919;-74
2023/06/20 06:06:37;;;;;;;13.13;8.75;;;;;;;21.00;61.66;101402.97;7404519;19;19927;-74
2023/06/20 06:09:06;;;;;;;14.02;7.97;;;;;;;21.07;61.44;101400.97;7403955;19;19939;-74
2023/06/20 06:11:37;;;;;;;10.85;7.18;;;;;;;21.10;61.19;101407.88;7407205;19;19922;-74
2023/06/20 06:14:06;;;;;;;11.55;8.48;;;;;;;21.17;61.66;101414.16;7407359;19;19933;-75
2023/06/20 06:16:35;;;;;;;14.48;7.60;;;;;;;21.28;61.36;101402.38;7405442;19;20364;-74
2023/06/20 06:19:04;;;;;;;10.68;6.65;;;;;;;21.34;60.93;101415.16;7405723;19;20336;-73
2023/06/20 06:21:32;;;;;;;11.73;7.50;;;;;;;21.43;60.34;101408.25;7403597;19;19970;-74
2023/06/20 06:24:02;;;;;;;10.43;7.50;;;;;;;21.51;60.62;101399.69;7403433;19;19926;-74
2023/06/20 06:26:30;;;;;;;14.60;7.65;;;;;;;21.60;60.34;101413.88;7405284;19;19926;-74
2023/06/20 06:29:04;;;;;;;13.80;6.93;;;;;;;21.65;60.01;101414.00;7405115;19;19940;-74
2023/06/20 06:31:34;;;;;;;10.32;7.32;;;;;;;21.67;60.06;101414.59;7402641;19;19922;-74
2023/06/20 06:34:05;;;;;;;10.27;6.95;;;;;;;21.68;60.22;101419.84;7406563;19;19923;-74
2023/06/20 06:36:36;;;;;;;14.80;7.88;;;;;;;21.68;60.38;101421.75;7403465;19;19926;-74
2023/06/20 06:39:07;;;;;;;13.48;8.52;;;;;;;21.69;60.79;101421.53;7403762;19;19923;-74
2023/06/20 06:41:36;;;;;;;11.95;7.90;;;;;;;21.71;60.25;101432.25;7404007;19;20295;-74
2023/06/20 06:44:08;;;;;;;9.18;6.80;;;;;;;21.77;60.12;101431.31;7404814;19;19929;-73
2023/06/20 06:46:36;;;;;;;8.57;6.60;;;;;;;21.81;59.55;101442.63;7404989;19;19926;-73
2023/06/20 06:49:05;;;;;;;10.23;6.85;;;;;;;21.82;59.94;101444.31;7403824;19;19926;-74
2023/06/20 06:51:34;;;;;;;11.40;6.75;;;;;;;21.88;59.43;101444.19;7404450;19;19931;-74
2023/06/20 06:54:03;;;;;;;12.95;7.40;;;;;;;21.96;59.37;101441.13;7405159;19;19970;-74
2023/06/20 06:56:31;;;;;;;11.00;7.30;;;;;;;22.04;58.79;101442.69;7405989;19;20281;-74
2023/06/20 06:59:01;;;;;;;13.68;7.32;;;;;;;22.09;59.09;101429.91;7404342;19;19922;-74
2023/06/20 07:01:33;;;;;;;12.63;7.10;;;;;;;22.14;58.58;101426.44;7405375;19;20027;-74
2023/06/20 07:04:01;;;;;;;10.40;6.20;;;;;;;22.19;58.42;101421.06;7400875;19;20241;-74
2023/06/20 07:06:30;;;;;;;9.50;6.05;;;;;;;22.25;58.79;101414.63;7403364;19;19926;-74
2023/06/20 07:09:00;;;;;;;9.57;7.05;;;;;;;22.33;58.94;101418.91;7405498;19;19985;-75
2023/06/20 07:11:29;;;;;;;9.70;6.22;;;;;;;22.37;58.42;101409.94;7404741;19;19915;-74
2023/06/20 07:13:57;;;;;;;10.30;6.28;;;;;;;22.41;58.79;101408.38;7401539;19;19940;-74
2023/06/20 07:16:28;;;;;;;9.52;6.95;;;;;;;22.40;58.70;101409.47;7404784;19;19983;-75
2023/06/20 07:19:00;;;;;;;9.18;6.18;;;;;;;22.43;58.59;101416.41;7404276;19;19918;-74
2023/06/20 07:21:29;;;;;;;;;;;;;;;22.28;58.91;101416.88;7412347;19;19940;-74
2023/06/20 07:23:57;;;;;;;;;;;;;;;22.31;58.74;101430.13;7412820;19;19918;-73
2023/06/20 07:26:26;;;;;;;8.32;6.15;;;;;;;22.47;58.71;101420.31;7410302;19;20315;-73
2023/06/20 07:28:54;;;;;;;11.23;6.80;;;;;;;22.51;58.23;101416.84;7409145;19;19949;-74
2023/06/20 07:31:24;;;;;;;8.73;6.50;;;;;;;22.56;58.25;101416.94;7409298;19;19919;-75
2023/06/20 07:33:53;;;;;;;9.63;6.13;;;;;;;22.61;58.29;101417.03;7409497;19;19978;-74
2023/06/20 07:36:24;;;;;;;10.02;6.95;;;;;;;22.69;57.94;101409.53;7411175;19;19950;-74
2023/06/20 07:38:53;;;;;;;11.00;7.22;;;;;;;22.77;58.03;101409.16;7411082;19;19928;-75
2023/06/20 07:41:21;;;;;;;11.70;7.80;;;;;;;22.83;57.97;101413.66;7410993;19;20267;-74
2023/06/20 07:43:50;;;;;;;12.00;6.95;;;;;;;22.88;57.77;101411.03;7409629;19;19914;-74
2023/06/20 07:46:19;;;;;;;11.40;7.68;;;;;;;22.92;57.63;101406.69;7409903;19;20080;-74
2023/06/20 07:48:48;;;;;;;15.10;8.32;;;;;;;22.92;57.60;101406.69;7409568;19;19935;-74
2023/06/20 07:51:16;;;;;;;10.18;7.05;;;;;;;22.96;57.82;101399.63;7407818;19;19934;-74
2023/06/20 07:53:48;;;;;;;9.73;6.63;;;;;;;23.00;57.31;101387.06;7410028;19;19946;-73
2023/06/20 07:56:16;;;;;;;12.45;8.05;;;;;;;23.00;57.84;101384.31;7408921;19;19935;-73
2023/06/20 07:58:47;;;;;;;13.88;7.63;;;;;;;23.03;57.48;101386.59;7408430;19;19942;-73
2023/06/20 08:01:16;;;;;;;11.18;6.95;;;;;;;23.08;57.54;101392.19;7406280;19;19951;-73
2023/06/20 08:03:44;;;;;;;14.80;8.48;;;;;;;23.09;57.99;101388.34;7404389;19;20238;-73
2023/06/20 08:06:13;;;;;;;17.60;8.75;;;;;;;23.08;57.90;101386.69;7408328;19;19956;-74
2023/06/20 08:08:42;;;;;;;13.43;7.80;;;;;;;23.10;58.03;101391.91;7409993;19;19935;-73
2023/06/20 08:11:14;;;;;;;12.52;7.88;;;;;;;23.11;58.39;101391.69;7408944;19;20298;-74
2023/06/20 08:13:42;;;;;;;11.75;8.38;;;;;;;23.07;58.11;101387.75;7410545;19;20351;-74
2023/06/20 08:16:11;;;;;;;11.65;7.80;;;;;;;23.09;57.87;101399.34;7407052;19;19936;-75
2023/06/20 08:18:40;;;;;;;12.93;8.60;;;;;;;23.08;58.28;101393.00;7409012;19;19934;-74
2023/06/20 08:21:09;;;;;;;11.73;8.52;;;;;;;23.09;58.10;101388.34;7408596;19;19918;-73
2023/06/20 08:23:38;;;;;;;12.02;7.65;;;;;;;23.13;57.61;101386.75;7408612;19;19926;-75
2023/06/20 08:26:06;;;;;;;10.98;7.97;;;;;;;23.20;58.10;101378.38;7405761;19;19985;-75
2023/06/20 08:28:38;;;;;;;13.43;7.22;;;;;;;23.24;57.89;101382.28;7404594;19;19922;-74
2023/06/20 08:31:07;;;;;;;10.23;7.03;;;;;;;23.30;58.03;101373.06;7406277;19;19994;-75
2023/06/20 08:33:36;;;;;;;12.15;8.27;;;;;;;23.35;58.53;101367.63;7411123;19;20335;-74
2023/06/20 08:36:05;;;;;;;12.32;8.88;;;;;;;23.38;58.47;101364.41;7410153;19;20329;-75
2023/06/20 08:38:34;;;;;;;11.05;8.02;;;;;;;23.45;58.10;101360.41;7408306;19;20376;-74
2023/06/20 08:41:03;;;;;;;12.30;8.55;;;;;;;23.51;57.54;101356.66;7404841;19;19943;-74
2023/06/20 08:43:34;;;;;;;11.63;7.88;;;;;;;23.58;57.35;101356.50;7404873;19;19928;-74
2023/06/20 08:46:05;;;;;;;10.25;7.70;;;;;;;23.65;57.87;101356.31;7403079;19;19959;-74
2023/06/20 08:48:34;;;;;;;10.02;7.82;;;;;;;23.71;57.37;101347.06;7401049;19;19994;-74
2023/06/20 08:51:04;;;;;;;10.65;8.13;;;;;;;23.71;57.42;101341.56;7405162;19;19968;-74
2023/06/20 08:53:33;;;;;;;10.38;7.97;;;;;;;23.77;57.41;101343.31;7405888;19;19922;-75
2023/06/20 08:56:04;;;;;;;10.00;7.55;;;;;;;23.76;57.83;101336.97;7406725;19;19918;-74
2023/06/20 08:58:34;;;;;;;10.10;7.97;;;;;;;23.77;57.40;101340.56;7401860;19;20283;-74
2023/06/20 09:01:07;;;;;;;13.02;8.38;;;;;;;23.80;57.68;101337.28;7404847;19;20019;-74
2023/06/20 09:03:35;;;;;;;13.00;8.15;;;;;;;23.81;58.15;101338.97;7401601;19;19922;-75
2023/06/20 09:06:04;;;;;;;10.65;7.75;;;;;;;23.82;58.11;101349.69;7402143;19;20522;-75
2023/06/20 09:08:39;;;;;;;8.98;7.25;;;;;;;23.82;57.60;101351.63;7403718;19;19955;-74
2023/06/20 09:11:09;;;;;;;9.65;7.18;;;;;;;23.86;57.78;101350.03;7404345;19;19949;-74
2023/06/20 09:13:38;;;;;;;10.15;7.05;;;;;;;23.88;57.87;101356.13;7402962;19;19922;-75
2023/06/20 09:16:11;;;;;;;11.60;7.15;;;;;;;23.94;57.67;101349.63;7403540;19;19982;-73
2023/06/20 09:18:40;;;;;;;13.45;8.88;;;;;;;23.98;57.79;101339.75;7402104;19;19928;-74
2023/06/20 09:21:16;;;;;;;9.68;7.32;;;;;;;24.04;57.60;101341.47;7401775;19;19998;-74
2023/06/20 09:23:45;;;;;;;11.30;7.80;;;;;;;24.12;58.23;101341.03;7403702;19;19947;-75
2023/06/20 09:26:17;;;;;;;10.63;8.32;;;;;;;24.24;57.70;101343.72;7403113;19;19950;-74
2023/06/20 09:28:46;;;;;;;10.18;7.30;;;;;;;24.33;56.99;101343.00;7400730;19;19929;-74
2023/06/20 09:31:19;;;;;;;12.05;7.55;;;;;;;24.44;57.69;101343.13;7401682;19;19926;-75
2023/06/20 09:33:49;;;;;;;8.77;7.38;;;;;;;24.53;57.17;101331.41;7405589;19;19907;-75
2023/06/20 09:36:19;;;;;;;10.13;6.85;;;;;;;24.55;57.34;101345.72;7401382;19;19940;-74
2023/06/20 09:38:56;;;;;;;9.65;6.93;;;;;;;24.59;57.12;101340.56;7304824;19;20356;-75
2023/06/20 09:41:25;;;;;;;9.25;6.72;;;;;;;24.66;56.86;101333.75;7403004;19;20027;-75
2023/06/20 09:43:54;;;;;;;12.65;6.63;;;;;;;24.74;56.89;101329.69;7402370;19;19914;-74
2023/06/20 09:46:25;;;;;;;8.43;7.20;;;;;;;24.85;55.93;101332.31;7401555;19;20340;-72
2023/06/20 09:48:54;;;;;;;9.95;6.43;;;;;;;24.95;56.28;101322.50;7398304;19;19918;-79
2023/06/20 09:51:24;;;;;;;10.82;6.80;;;;;;;25.04;56.03;101320.91;7401258;19;19919;-76
2023/06/20 09:54:01;;;;;;;9.20;6.22;;;;;;;25.10;56.37;101326.25;7387791;19;19922;-75
2023/06/20 09:56:32;;;;;;;8.98;6.68;;;;;;;25.18;56.20;101322.16;7392096;19;19933;-77
2023/06/20 09:59:04;;;;;;;8.55;6.85;;;;;;;25.26;56.14;101321.66;7405059;19;19929;-77
2023/06/20 10:01:38;;;;;;;8.40;5.80;;;;;;;25.46;55.47;101321.81;7402417;19;20261;-78
2023/06/20 10:04:08;;;;;;;9.90;6.18;;;;;;;25.66;54.88;101323.94;7402312;19;20681;-80
2023/06/20 10:06:37;;;;;;;9.88;6.78;;;;;;;25.79;54.80;101329.00;7403887;19;19923;-78
2023/06/20 10:09:08;;;;;;;9.73;7.03;;;;;;;25.88;54.47;101330.16;7401567;19;20508;-78
2023/06/20 10:11:38;;;;;;;7.47;6.00;;;;;;;25.95;54.02;101325.22;7302614;19;19931;-80
2023/06/20 10:14:08;;;;;;;7.60;6.15;;;;;;;26.05;54.15;101327.19;7398171;19;19927;-77
2023/06/20 10:16:39;;;;;;;9.35;6.07;;;;;;;26.09;54.55;101320.88;7404016;19;19930;-77
2023/06/20 10:19:18;;;;;;;9.50;7.32;;;;;;;26.18;54.19;101316.50;7400330;19;19930;-77
2023/06/20 10:22:05;;;;;;;8.05;6.63;;;;;;;26.34;52.87;101314.66;7403636;19;19943;-81
2023/06/20 10:24:33;;;;;;;9.27;6.60;;;;;;;26.56;52.81;101309.75;7401222;19;19923;-79
2023/06/20 10:27:03;;;;;;;8.00;6.85;;;;;;;26.75;52.05;101306.47;7403105;19;19961;-77
2023/06/20 10:29:40;;;;;;;11.75;6.60;;;;;;;26.91;51.71;101303.50;7399995;19;19934;-75
2023/06/20 10:32:15;;;;;;;11.00;6.38;;;;;;;27.03;50.83;101304.03;7396299;19;19914;-78
2023/06/20 10:34:45;;;;;;;9.70;6.93;;;;;;;27.16;51.16;101299.06;7395300;19;19918;-76
2023/06/20 10:37:18;;;;;;;11.43;7.70;;;;;;;27.26;51.11;101291.59;7398812;19;19919;-77
2023/06/20 10:39:54;;;;;;;10.93;7.10;;;;;;;27.29;50.64;101293.81;7402992;19;19918;-78
2023/06/20 10:42:40;;;;;;;8.32;6.75;;;;;;;27.34;50.69;101285.50;7406692;19;19953;-72
2023/06/20 10:45:22;;;;;;;8.48;5.75;;;;;;;27.46;49.99;101280.50;7405110;19;19921;-72
2023/06/20 10:47:56;;;;;;;9.50;6.20;;;;;;;27.54;50.84;101279.13;7405013;19;19953;-73
2023/06/20 10:50:29;;;;;;;7.18;5.70;;;;;;;27.55;50.55;101274.44;7406245;19;19914;-74
2023/06/20 10:53:00;;;;;;;8.43;6.70;;;;;;;27.61;50.81;101271.38;7406772;19;19915;-77
2023/06/20 10:55:33;;;;;;;7.28;6.43;;;;;;;27.62;51.05;101274.97;7404969;19;20368;-79
2023/06/20 10:58:02;;;;;;;7.72;5.75;;;;;;;27.59;50.37;101275.53;7407448;19;19985;-78
2023/06/20 11:00:30;;;;;;;7.68;6.22;;;;;;;27.68;50.82;101271.06;7406096;19;19931;-77
2023/06/20 11:03:02;;;;;;;7.50;6.70;;;;;;;27.89;50.41;101267.97;7396567;19;19958;-78
2023/06/20 11:05:34;;;;;;;7.63;5.90;;;;;;;28.09;49.77;101269.00;7398253;19;19918;-79
2023/06/20 11:08:07;;;;;;;8.50;6.80;;;;;;;28.20;49.45;101260.38;7397443;19;20355;-81
2023/06/20 11:10:37;;;;;;;6.40;5.68;;;;;;;28.32;49.02;101266.41;7395726;19;20355;-78
2023/06/20 11:13:08;;;;;;;8.43;6.15;;;;;;;28.41;48.46;101255.56;7398210;19;19932;-80
2023/06/20 11:15:38;;;;;;;9.18;6.43;;;;;;;28.53;48.70;101253.25;7395127;19;19922;-79
2023/06/20 11:18:11;;;;;;;10.70;7.68;;;;;;;28.62;48.61;101257.06;7401497;19;19986;-74
2023/06/20 11:20:41;;;;;;;10.57;7.18;;;;;;;28.66;47.67;101246.22;7393246;19;19918;-76
2023/06/20 11:23:13;;;;;;;8.75;6.40;;;;;;;28.69;47.72;101251.22;7400796;19;19923;-76
2023/06/20 11:25:44;;;;;;;9.35;7.22;;;;;;;28.71;48.21;101249.00;7402198;19;19938;-76
2023/06/20 11:28:15;;;;;;;7.80;6.45;;;;;;;28.79;47.70;101246.44;7398891;19;20364;-74
2023/06/20 11:30:47;;;;;;;7.00;6.30;;;;;;;28.85;47.52;101245.31;7400726;19;19922;-88
2023/06/20 11:33:19;;;;;;;7.00;5.35;;;;;;;28.89;46.99;101237.22;7404817;19;19926;-79